This is the latest recevied weather packets stored in our database for station/object W9KHP-1. If no packets are shown the sender has not sent any weather packets the latest 1 day(s).
| Time | Temp. | Humidity | Pressure | Rain* | Wind** | Luminosity | Snow |
|---|---|---|---|---|---|---|---|
| 1836274790 | 21.11° C | 76% | 1018.9 hPa | 0 mm | 0 m/s | 0 W/m² | - |
| 1836274489 | 21.67° C | 75% | 1019 hPa | 0 mm | 0 m/s | 0 W/m² | - |
| 1836274342 | 21.11° C | 79% | 1019 hPa | 0 mm | 0 m/s | 0 W/m² | - |
| 1836274186 | 21.67° C | 74% | 1019 hPa | 0 mm | 0 m/s | 0 W/m² | - |
| 1836273880 | 21.67° C | 72% | 1019 hPa | 0 mm | 0 m/s | 0 W/m² | - |
| 1778066856 | 7.78° C | 99% | 1014.8 hPa | 0 mm | 0 m/s | 23 W/m² | - |
| 1778066554 | 7.78° C | 99% | 1014.8 hPa | 0 mm | 0.45 m/s, 341° | 20 W/m² | - |
| 1778066251 | 7.78° C | 99% | 1014.6 hPa | 0 mm | 0 m/s | 16 W/m² | - |
| 1778065950 | 7.78° C | 99% | 1014.7 hPa | 0 mm | 0 m/s | 7 W/m² | - |
| 1778065646 | 7.78° C | 99% | 1014.7 hPa | 0 mm | 0.45 m/s, 336° | 3 W/m² | - |
| 1778065344 | 7.78° C | 99% | 1014.9 hPa | 0 mm | 0 m/s | 2 W/m² | - |
| 1778065040 | 7.78° C | 99% | 1014.8 hPa | 0 mm | 0 m/s | 1 W/m² | - |
| 1778064737 | 7.78° C | 99% | 1014.6 hPa | 0 mm | 0 m/s | 1 W/m² | - |
| 1778064435 | 7.78° C | 99% | 1014.4 hPa | 0 mm | 0 m/s | 0 W/m² | - |
| 1778064133 | 7.78° C | 99% | 1014.4 hPa | 0 mm | 0 m/s | 0 W/m² | - |
| 1778063829 | 7.78° C | 99% | 1014.2 hPa | 0 mm | 0 m/s | 0 W/m² | - |
| 1778063526 | 7.78° C | 99% | 1013.8 hPa | 0 mm | 0 m/s | 0 W/m² | - |
| 1778063224 | 7.78° C | 99% | 1013.5 hPa | 0 mm | 0 m/s | 0 W/m² | - |
| 1778062922 | 7.22° C | 99% | 1013.9 hPa | 0 mm | 0 m/s | 0 W/m² | - |
| 1778062619 | 7.22° C | 99% | 1013.7 hPa | 0 mm | 0 m/s | 0 W/m² | - |
| 1778062315 | 7.22° C | 99% | 1013.8 hPa | 0 mm | 0 m/s | 0 W/m² | - |
| 1778062014 | 7.22° C | 99% | 1013.7 hPa | 0 mm | 0 m/s | 0 W/m² | - |
| 1778061711 | 7.22° C | 99% | 1013.6 hPa | 0 mm | 0 m/s | 0 W/m² | - |
| 1778061410 | 7.22° C | 99% | 1013.3 hPa | 0 mm | 0 m/s | 0 W/m² | - |
| 1778061106 | 7.22° C | 99% | 1013.3 hPa | 0 mm | 0 m/s | 0 W/m² | - |
* Rain latest hour (hover to see other rain measurements)
** Current wind speed in m/s (hover to see current wind gust speed)